Time,TemperatureF,DewpointF,PressureIn,WindDirection,WindDirectionDegrees,WindSpeedMPH,WindSpeedGustMPH,Humidity,HourlyPrecipIn,Conditions,Clouds,dailyrainin,SoftwareType,DateUTC
2013-04-28 00:02:00,-999.0,-99.9,30.42,NNW,338,13.0,18.0,-999,-99.99,,,-99.99,,2013-04-28 08:02:00,
2013-04-28 00:12:00,-999.0,-99.9,30.42,NW,316,11.0,13.0,-999,-99.99,,,-99.99,,2013-04-28 08:12:00,
2013-04-28 00:21:00,-999.0,-99.9,30.42,NNW,332,8.0,11.0,-999,-99.99,,,-99.99,,2013-04-28 08:21:00,
2013-04-28 00:32:00,-999.0,-99.9,30.42,WNW,282,7.0,9.0,-999,-99.99,,,-99.99,,2013-04-28 08:32:00,
2013-04-28 00:42:00,23.0,-99.9,30.42,NW,309,9.0,10.0,-999,-99.99,,,-99.99,,2013-04-28 08:42:00,
2013-04-28 00:52:00,-999.0,-99.9,30.43,WNW,298,6.0,9.0,-999,-99.99,,,-99.99,,2013-04-28 08:52:00,
2013-04-28 01:01:00,-999.0,-99.9,30.43,WNW,297,10.0,11.0,-999,-99.99,,,-99.99,,2013-04-28 09:01:00,
2013-04-28 01:12:00,22.0,-99.9,30.43,WNW,301,8.0,11.0,-999,-99.99,,,-99.99,,2013-04-28 09:12:00,
2013-04-28 01:22:00,-999.0,-99.9,30.42,NNW,346,4.0,7.0,-999,-99.99,,,-99.99,,2013-04-28 09:22:00,
2013-04-28 01:33:00,-999.0,-99.9,30.42,NNW,331,7.0,10.0,-999,-99.99,,,-99.99,,2013-04-28 09:33:00,
2013-04-28 01:43:00,-999.0,-99.9,30.43,West,272,4.0,11.0,-999,-99.99,,,-99.99,,2013-04-28 09:43:00,
2013-04-28 01:53:00,20.0,-99.9,30.43,WNW,297,7.0,8.0,-999,-99.99,,,-99.99,,2013-04-28 09:53:00,
2013-04-28 02:03:00,-999.0,-99.9,30.43,WNW,300,8.0,9.0,-999,-99.99,,,-99.99,,2013-04-28 10:03:00,
2013-04-28 02:12:00,21.0,-99.9,30.43,WNW,303,15.0,17.0,-999,-99.99,,,-99.99,,2013-04-28 10:12:00,
2013-04-28 02:23:00,-999.0,-99.9,30.42,NW,326,17.0,20.0,-999,-99.99,,,-99.99,,2013-04-28 10:23:00,
2013-04-28 02:32:00,-999.0,-99.9,30.43,NW,313,14.0,17.0,-999,-99.99,,,-99.99,,2013-04-28 10:32:00,
2013-04-28 02:42:00,-999.0,-99.9,30.42,NNW,331,13.0,15.0,-999,-99.99,,,-99.99,,2013-04-28 10:42:00,
2013-04-28 02:53:00,-999.0,-99.9,30.43,NNW,330,11.0,14.0,-999,-99.99,,,-99.99,,2013-04-28 10:53:00,
2013-04-28 03:02:00,-999.0,-99.9,30.43,NNW,346,4.0,7.0,-999,-99.99,,,-99.99,,2013-04-28 11:02:00,
2013-04-28 03:11:00,18.0,-99.9,30.43,WSW,258,11.0,12.0,-999,-99.99,,,-99.99,,2013-04-28 11:11:00,
2013-04-28 03:22:00,-999.0,-99.9,30.44,NW,304,11.0,15.0,-999,-99.99,,,-99.99,,2013-04-28 11:22:00,
2013-04-28 03:32:00,-999.0,-99.9,30.44,NW,317,8.0,12.0,-999,-99.99,,,-99.99,,2013-04-28 11:32:00,
2013-04-28 03:42:00,20.0,-99.9,30.44,NW,326,4.0,7.0,-999,-99.99,,,-99.99,,2013-04-28 11:42:00,
2013-04-28 03:52:00,-999.0,-99.9,30.44,NNW,340,3.0,6.0,-999,-99.99,,,-99.99,,2013-04-28 11:52:00,
2013-04-28 04:02:00,-999.0,-99.9,30.43,West,270,6.0,8.0,-999,-99.99,,,-99.99,,2013-04-28 12:02:00,
2013-04-28 04:12:00,16.0,-99.9,30.44,WSW,256,5.0,6.0,-999,-99.99,,,-99.99,,2013-04-28 12:12:00,
2013-04-28 04:22:00,-999.0,-99.9,30.43,WNW,301,9.0,12.0,-999,-99.99,,,-99.99,,2013-04-28 12:22:00,
2013-04-28 04:32:00,-999.0,-99.9,30.44,West,270,5.0,7.0,-999,-99.99,,,-99.99,,2013-04-28 12:32:00,
2013-04-28 04:42:00,14.0,-99.9,30.43,West,275,8.0,9.0,-999,-99.99,,,-99.99,,2013-04-28 12:42:00,
2013-04-28 04:52:00,-999.0,-99.9,30.43,NW,320,6.0,10.0,-999,-99.99,,,-99.99,,2013-04-28 12:52:00,
2013-04-28 05:02:00,-999.0,-99.9,30.42,NW,315,7.0,8.0,-999,-99.99,,,-99.99,,2013-04-28 13:02:00,
2013-04-28 05:11:00,-999.0,-99.9,30.42,WNW,293,3.0,5.0,-999,-99.99,,,-99.99,,2013-04-28 13:11:00,
2013-04-28 05:22:00,-999.0,-99.9,30.42,NNW,332,4.0,6.0,-999,-99.99,,,-99.99,,2013-04-28 13:22:00,
2013-04-28 05:32:00,-999.0,-99.9,30.43,NW,312,6.0,8.0,-999,-99.99,,,-99.99,,2013-04-28 13:32:00,
2013-04-28 05:42:00,16.0,-99.9,30.43,ESE,109,3.0,6.0,-999,-99.99,,,-99.99,,2013-04-28 13:42:00,
2013-04-28 05:52:00,-999.0,-99.9,30.43,East,95,4.0,4.0,-999,-99.99,,,-99.99,,2013-04-28 13:52:00,
2013-04-28 06:02:00,-999.0,-99.9,30.43,SE,134,5.0,6.0,-999,-99.99,,,-99.99,,2013-04-28 14:02:00,
2013-04-28 06:11:00,16.0,-99.9,30.43,SE,131,3.0,5.0,-999,-99.99,,,-99.99,,2013-04-28 14:11:00,
2013-04-28 06:22:00,-999.0,-99.9,30.43,ENE,73,2.0,4.0,-999,-99.99,,,-99.99,,2013-04-28 14:22:00,
2013-04-28 06:32:00,-999.0,-99.9,30.44,NNW,348,2.0,4.0,-999,-99.99,,,-99.99,,2013-04-28 14:32:00,
2013-04-28 06:42:00,-999.0,-99.9,30.44,North,4,2.0,3.0,-999,-99.99,,,-99.99,,2013-04-28 14:42:00,
2013-04-28 06:52:00,12.0,-99.9,30.44,WNW,293,2.0,3.0,-999,-99.99,,,-99.99,,2013-04-28 14:52:00,
2013-04-28 07:02:00,-999.0,-99.9,30.44,ENE,73,2.0,3.0,-999,-99.99,,,-99.99,,2013-04-28 15:02:00,
2013-04-28 07:12:00,14.0,-99.9,30.44,NE,38,0.0,3.0,-999,-99.99,,,-99.99,,2013-04-28 15:12:00,
2013-04-28 07:22:00,-999.0,-99.9,30.43,ENE,67,2.0,2.0,-999,-99.99,,,-99.99,,2013-04-28 15:22:00,
2013-04-28 07:33:00,-999.0,-99.9,30.43,ENE,72,2.0,2.0,-999,-99.99,,,-99.99,,2013-04-28 15:33:00,
2013-04-28 07:43:00,-999.0,-99.9,30.43,North,6,2.0,2.0,-999,-99.99,,,-99.99,,2013-04-28 15:43:00,
2013-04-28 07:53:00,-999.0,-99.9,30.43,NNE,33,0.0,2.0,-999,-99.99,,,-99.99,,2013-04-28 15:53:00,
2013-04-28 08:03:00,-999.0,-99.9,30.43,ENE,58,0.0,1.0,-999,-99.99,,,-99.99,,2013-04-28 16:03:00,
2013-04-28 08:13:00,16.0,-99.9,30.43,ENE,71,2.0,2.0,-999,-99.99,,,-99.99,,2013-04-28 16:13:00,
2013-04-28 08:23:00,-999.0,-99.9,30.43,NE,56,2.0,2.0,-999,-99.99,,,-99.99,,2013-04-28 16:23:00,
2013-04-28 08:33:00,-999.0,-99.9,30.43,NE,40,0.0,1.0,-999,-99.99,,,-99.99,,2013-04-28 16:33:00,
2013-04-28 08:43:00,15.0,-99.9,30.43,WNW,294,3.0,3.0,-999,-99.99,,,-99.99,,2013-04-28 16:43:00,
2013-04-28 08:52:00,-999.0,-99.9,30.44,West,276,9.0,9.0,-999,-99.99,,,-99.99,,2013-04-28 16:52:00,
2013-04-28 09:02:00,-999.0,-99.9,30.44,WNW,297,6.0,7.0,-999,-99.99,,,-99.99,,2013-04-28 17:02:00,
2013-04-28 09:12:00,-999.0,-99.9,30.43,NW,305,6.0,7.0,-999,-99.99,,,-99.99,,2013-04-28 17:12:00,
2013-04-28 09:22:00,11.0,-99.9,30.43,NW,314,6.0,6.0,-999,-99.99,,,-99.99,,2013-04-28 17:22:00,
2013-04-28 09:32:00,-999.0,-99.9,30.43,NNW,343,3.0,4.0,-999,-99.99,,,-99.99,,2013-04-28 17:32:00,
2013-04-28 09:43:00,17.0,-99.9,30.43,NE,47,2.0,2.0,-999,-99.99,,,-99.99,,2013-04-28 17:43:00,
2013-04-28 09:52:00,-999.0,-99.9,30.43,NNE,29,2.0,2.0,-999,-99.99,,,-99.99,,2013-04-28 17:52:00,
2013-04-28 10:02:00,-999.0,-99.9,30.43,NNE,28,2.0,2.0,-999,-99.99,,,-99.99,,2013-04-28 18:02:00,
2013-04-28 10:12:00,-999.0,-99.9,30.43,NE,42,1.0,2.0,-999,-99.99,,,-99.99,,2013-04-28 18:12:00,
2013-04-28 10:22:00,-999.0,-99.9,30.43,East,85,1.0,2.0,-999,-99.99,,,-99.99,,2013-04-28 18:22:00,
2013-04-28 10:32:00,-999.0,-99.9,30.43,SE,138,2.0,2.0,-999,-99.99,,,-99.99,,2013-04-28 18:32:00,
2013-04-28 10:42:00,21.0,-99.9,30.43,SSE,157,1.0,2.0,-999,-99.99,,,-99.99,,2013-04-28 18:42:00,
2013-04-28 10:52:00,-999.0,-99.9,30.43,West,264,2.0,2.0,-999,-99.99,,,-99.99,,2013-04-28 18:52:00,
2013-04-28 11:11:00,18.0,-99.9,30.44,WNW,282,2.0,3.0,-999,-99.99,,,-99.99,,2013-04-28 19:11:00,
2013-04-28 11:22:00,-999.0,-99.9,30.43,WNW,303,2.0,3.0,-999,-99.99,,,-99.99,,2013-04-28 19:22:00,
2013-04-28 11:32:00,-999.0,-99.9,30.43,NW,313,2.0,2.0,-999,-99.99,,,-99.99,,2013-04-28 19:32:00,
2013-04-28 11:42:00,-999.0,-99.9,30.44,West,271,5.0,7.0,-999,-99.99,,,-99.99,,2013-04-28 19:42:00,
2013-04-28 11:52:00,20.0,-99.9,30.44,West,275,6.0,7.0,-999,-99.99,,,-99.99,,2013-04-28 19:52:00,
2013-04-28 12:02:00,-999.0,-99.9,30.44,WNW,284,6.0,7.0,-999,-99.99,,,-99.99,,2013-04-28 20:02:00,
2013-04-28 12:12:00,21.0,-99.9,30.43,WNW,286,6.0,7.0,-999,-99.99,,,-99.99,,2013-04-28 20:12:00,
2013-04-28 12:22:00,-999.0,-99.9,30.43,WNW,291,4.0,5.0,-999,-99.99,,,-99.99,,2013-04-28 20:22:00,
2013-04-28 12:33:00,-999.0,-99.9,30.43,WNW,284,5.0,5.0,-999,-99.99,,,-99.99,,2013-04-28 20:33:00,
2013-04-28 12:42:00,-999.0,-99.9,30.43,WNW,283,5.0,5.0,-999,-99.99,,,-99.99,,2013-04-28 20:42:00,
2013-04-28 12:52:00,-999.0,-99.9,30.43,WNW,282,5.0,5.0,-999,-99.99,,,-99.99,,2013-04-28 20:52:00,
2013-04-28 13:01:00,-999.0,-99.9,30.43,West,280,6.0,6.0,-999,-99.99,,,-99.99,,2013-04-28 21:01:00,
2013-04-28 13:12:00,24.0,-99.9,30.43,West,278,8.0,8.0,-999,-99.99,,,-99.99,,2013-04-28 21:12:00,
2013-04-28 13:22:00,-999.0,-99.9,30.43,WNW,290,7.0,8.0,-999,-99.99,,,-99.99,,2013-04-28 21:22:00,
2013-04-28 13:33:00,-999.0,-99.9,30.43,WNW,289,6.0,7.0,-999,-99.99,,,-99.99,,2013-04-28 21:33:00,
2013-04-28 13:43:00,25.0,-99.9,30.42,WNW,292,4.0,6.0,-999,-99.99,,,-99.99,,2013-04-28 21:43:00,
2013-04-28 13:53:00,-999.0,-99.9,30.42,WSW,243,2.0,3.0,-999,-99.99,,,-99.99,,2013-04-28 21:53:00,
2013-04-28 14:03:00,-999.0,-99.9,30.42,WSW,257,3.0,4.0,-999,-99.99,,,-99.99,,2013-04-28 22:03:00,
2013-04-28 14:13:00,-999.0,-99.9,30.42,WNW,284,4.0,6.0,-999,-99.99,,,-99.99,,2013-04-28 22:13:00,
2013-04-28 14:23:00,26.0,-99.9,30.42,WNW,289,4.0,6.0,-999,-99.99,,,-99.99,,2013-04-28 22:23:00,
2013-04-28 14:34:00,-999.0,-99.9,30.42,WNW,283,6.0,8.0,-999,-99.99,,,-99.99,,2013-04-28 22:34:00,
2013-04-28 14:43:00,26.0,-99.9,30.42,West,280,7.0,8.0,-999,-99.99,,,-99.99,,2013-04-28 22:43:00,
2013-04-28 14:52:00,-999.0,-99.9,30.42,West,278,8.0,9.0,-999,-99.99,,,-99.99,,2013-04-28 22:52:00,
2013-04-28 15:02:00,-999.0,-99.9,30.42,West,280,9.0,10.0,-999,-99.99,,,-99.99,,2013-04-28 23:02:00,
2013-04-28 15:12:00,26.0,-99.9,30.42,West,280,8.0,10.0,-999,-99.99,,,-99.99,,2013-04-28 23:12:00,
2013-04-28 15:22:00,-999.0,-99.9,30.42,WNW,298,8.0,9.0,-999,-99.99,,,-99.99,,2013-04-28 23:22:00,
2013-04-28 15:32:00,-999.0,-99.9,30.42,West,277,8.0,9.0,-999,-99.99,,,-99.99,,2013-04-28 23:32:00,
2013-04-28 15:42:00,26.0,-99.9,30.42,West,279,9.0,10.0,-999,-99.99,,,-99.99,,2013-04-28 23:42:00,
2013-04-28 15:52:00,-999.0,-99.9,30.42,West,271,7.0,9.0,-999,-99.99,,,-99.99,,2013-04-28 23:52:00,
2013-04-28 16:01:00,-999.0,-99.9,30.41,WNW,289,9.0,11.0,-999,-99.99,,,-99.99,,2013-04-29 00:01:00,
2013-04-28 16:11:00,26.0,-99.9,30.41,West,280,10.0,11.0,-999,-99.99,,,-99.99,,2013-04-29 00:11:00,
2013-04-28 16:22:00,-999.0,-99.9,30.41,West,280,10.0,11.0,-999,-99.99,,,-99.99,,2013-04-29 00:22:00,
2013-04-28 16:32:00,-999.0,-99.9,30.40,WNW,288,11.0,12.0,-999,-99.99,,,-99.99,,2013-04-29 00:32:00,
2013-04-28 16:42:00,-999.0,-99.9,30.40,WNW,292,12.0,14.0,-999,-99.99,,,-99.99,,2013-04-29 00:42:00,
2013-04-28 16:52:00,26.0,-99.9,30.39,NW,306,15.0,18.0,-999,-99.99,,,-99.99,,2013-04-29 00:52:00,
2013-04-28 17:01:00,-999.0,-99.9,30.39,NW,305,17.0,18.0,-999,-99.99,,,-99.99,,2013-04-29 01:01:00,
2013-04-28 17:12:00,26.0,-99.9,30.39,NW,304,18.0,19.0,-999,-99.99,,,-99.99,,2013-04-29 01:12:00,
2013-04-28 17:22:00,-999.0,-99.9,30.39,NW,307,16.0,20.0,-999,-99.99,,,-99.99,,2013-04-29 01:22:00,
2013-04-28 17:32:00,-999.0,-99.9,30.39,NW,308,15.0,18.0,-999,-99.99,,,-99.99,,2013-04-29 01:32:00,
2013-04-28 17:42:00,26.0,-99.9,30.39,NW,306,16.0,17.0,-999,-99.99,,,-99.99,,2013-04-29 01:42:00,
2013-04-28 17:52:00,-999.0,-99.9,30.38,NW,308,18.0,19.0,-999,-99.99,,,-99.99,,2013-04-29 01:52:00,
2013-04-28 18:02:00,-999.0,-99.9,30.38,WNW,295,18.0,20.0,-999,-99.99,,,-99.99,,2013-04-29 02:02:00,
2013-04-28 18:11:00,26.0,-99.9,30.38,WNW,294,18.0,20.0,-999,-99.99,,,-99.99,,2013-04-29 02:11:00,
2013-04-28 18:22:00,-999.0,-99.9,30.37,WNW,294,20.0,21.0,-999,-99.99,,,-99.99,,2013-04-29 02:22:00,
2013-04-28 18:32:00,-999.0,-99.9,30.37,WNW,293,17.0,21.0,-999,-99.99,,,-99.99,,2013-04-29 02:32:00,
2013-04-28 18:42:00,26.0,-99.9,30.37,West,281,19.0,21.0,-999,-99.99,,,-99.99,,2013-04-29 02:42:00,
2013-04-28 18:52:00,-999.0,-99.9,30.37,WNW,287,18.0,21.0,-999,-99.99,,,-99.99,,2013-04-29 02:52:00,
2013-04-28 19:02:00,-999.0,-99.9,30.36,WNW,284,20.0,22.0,-999,-99.99,,,-99.99,,2013-04-29 03:02:00,
2013-04-28 19:12:00,-999.0,-99.9,30.36,WNW,289,19.0,21.0,-999,-99.99,,,-99.99,,2013-04-29 03:12:00,
2013-04-28 19:22:00,26.0,-99.9,30.36,WNW,287,17.0,20.0,-999,-99.99,,,-99.99,,2013-04-29 03:22:00,
2013-04-28 19:33:00,-999.0,-99.9,30.36,WNW,285,17.0,21.0,-999,-99.99,,,-99.99,,2013-04-29 03:33:00,
2013-04-28 19:43:00,25.0,-99.9,30.36,WNW,287,18.0,21.0,-999,-99.99,,,-99.99,,2013-04-29 03:43:00,
2013-04-28 19:53:00,-999.0,-99.9,30.35,WNW,284,17.0,20.0,-999,-99.99,,,-99.99,,2013-04-29 03:53:00,
2013-04-28 20:03:00,-999.0,-99.9,30.35,WNW,283,16.0,19.0,-999,-99.99,,,-99.99,,2013-04-29 04:03:00,
2013-04-28 20:13:00,25.0,-99.9,30.35,WNW,285,16.0,18.0,-999,-99.99,,,-99.99,,2013-04-29 04:13:00,
2013-04-28 20:23:00,-999.0,-99.9,30.35,WNW,284,16.0,18.0,-999,-99.99,,,-99.99,,2013-04-29 04:23:00,
2013-04-28 20:33:00,-999.0,-99.9,30.35,West,281,15.0,17.0,-999,-99.99,,,-99.99,,2013-04-29 04:33:00,
2013-04-28 20:43:00,26.0,-99.9,30.35,West,281,15.0,18.0,-999,-99.99,,,-99.99,,2013-04-29 04:43:00,
2013-04-28 20:52:00,-999.0,-99.9,30.35,West,280,15.0,17.0,-999,-99.99,,,-99.99,,2013-04-29 04:52:00,
2013-04-28 21:02:00,-999.0,-99.9,30.35,West,277,14.0,17.0,-999,-99.99,,,-99.99,,2013-04-29 05:02:00,
2013-04-28 21:12:00,26.0,-99.9,30.35,West,277,13.0,17.0,-999,-99.99,,,-99.99,,2013-04-29 05:12:00,
2013-04-28 21:22:00,-999.0,-99.9,30.35,WNW,282,13.0,15.0,-999,-99.99,,,-99.99,,2013-04-29 05:22:00,
2013-04-28 21:32:00,-999.0,-99.9,30.35,WNW,282,13.0,15.0,-999,-99.99,,,-99.99,,2013-04-29 05:32:00,
2013-04-28 21:42:00,26.0,-99.9,30.35,West,278,13.0,15.0,-999,-99.99,,,-99.99,,2013-04-29 05:42:00,
2013-04-28 21:52:00,-999.0,-99.9,30.35,WNW,283,13.0,15.0,-999,-99.99,,,-99.99,,2013-04-29 05:52:00,
2013-04-28 22:02:00,-999.0,-99.9,30.35,West,276,11.0,13.0,-999,-99.99,,,-99.99,,2013-04-29 06:02:00,
2013-04-28 22:12:00,25.0,-99.9,30.35,West,276,11.0,13.0,-999,-99.99,,,-99.99,,2013-04-29 06:12:00,
2013-04-28 22:22:00,-999.0,-99.9,30.34,West,278,12.0,13.0,-999,-99.99,,,-99.99,,2013-04-29 06:22:00,
2013-04-28 22:32:00,-999.0,-99.9,30.33,West,273,12.0,13.0,-999,-99.99,,,-99.99,,2013-04-29 06:32:00,
2013-04-28 22:42:00,-999.0,-99.9,30.34,West,278,11.0,12.0,-999,-99.99,,,-99.99,,2013-04-29 06:42:00,
2013-04-28 22:52:00,-999.0,-99.9,30.33,West,281,12.0,13.0,-999,-99.99,,,-99.99,,2013-04-29 06:52:00,
2013-04-28 23:02:00,-999.0,-99.9,30.33,West,278,12.0,13.0,-999,-99.99,,,-99.99,,2013-04-29 07:02:00,
2013-04-28 23:11:00,25.0,-99.9,30.33,West,276,11.0,13.0,-999,-99.99,,,-99.99,,2013-04-29 07:11:00,
2013-04-28 23:22:00,-999.0,-99.9,30.33,West,276,9.0,10.0,-999,-99.99,,,-99.99,,2013-04-29 07:22:00,
2013-04-28 23:32:00,-999.0,-99.9,30.33,WNW,282,8.0,9.0,-999,-99.99,,,-99.99,,2013-04-29 07:32:00,
2013-04-28 23:42:00,25.0,-99.9,30.33,West,278,9.0,10.0,-999,-99.99,,,-99.99,,2013-04-29 07:42:00,
2013-04-28 23:52:00,-999.0,-99.9,30.32,West,275,6.0,9.0,-999,-99.99,,,-99.99,,2013-04-29 07:52:00,